Ana Sayfa
METAR-TAF:

METAR-TAF

Havaalanları :

Narrandera, Avustralya

Enlem: 34-42-08S, Boylam: 146-30-44E, yükseklik: 144 m

Güncel hava durumu gözlemi

Rapor saat 19:33 UTC de 10 dakika önce yapıldı.
Sakin rüzgar
Sıcaklık -3°C
Nem 100%
Basınç 1025 hPa
Görüş mesafesi: 0800 m

METAR: YNAR 191933Z AUTO 00000KT 0800 // ////// M03/M03 Q1025

Saat: 05:43 (19:43 UTC)


TAF: eksik

4.000'den fazla havaalanı için hava durumu gözlemleri ve tahminleri (METAR ve TAF raporları).

Kullanılabilir istasyonlar harita üzerinde sarı ve kırmızı noktalarla gösterilir.

İstasyonun adını görmek için fareyi noktanın üzerinde gezdirin.

Sonrasında hava gözlem ve tahminlerini görmek için tıklayın.

Haritayı değiştirmek için: yaklaştırmak için siyah artı işaretli yeşil düğmeye ve uzaklaştırmak için de eksi işaretli düğmeye hızla tıklayın; bitişik haritalar için yeşil okları kullanın.


METAR-TAF: